createdAt,value
2018-06-09T00:01:28.657Z,20.60
2018-06-09T00:03:55.614Z,20.50
2018-06-09T00:06:22.951Z,20.50
2018-06-09T00:08:50.850Z,20.50
2018-06-09T00:11:17.794Z,20.60
2018-06-09T00:13:44.729Z,20.50
2018-06-09T00:16:11.773Z,20.50
2018-06-09T00:18:38.714Z,20.50
2018-06-09T00:21:05.630Z,20.40
2018-06-09T00:23:32.795Z,20.40
2018-06-09T00:25:59.709Z,20.40
2018-06-09T00:28:26.798Z,20.30
2018-06-09T00:30:53.778Z,20.30
2018-06-09T00:33:20.738Z,20.30
2018-06-09T00:35:48.518Z,20.20
2018-06-09T00:38:16.214Z,20.20
2018-06-09T00:40:44.058Z,20.20
2018-06-09T00:43:11.523Z,20.20
2018-06-09T00:45:38.966Z,20.10
2018-06-09T00:48:06.391Z,20.00
2018-06-09T00:50:34.155Z,19.90
2018-06-09T00:53:01.578Z,19.90
2018-06-09T00:55:29.038Z,19.80
2018-06-09T00:57:56.486Z,19.70
2018-06-09T01:00:23.938Z,19.70
2018-06-09T01:02:51.394Z,19.60
2018-06-09T01:05:18.837Z,19.60
2018-06-09T01:07:46.286Z,19.50
2018-06-09T01:10:13.731Z,19.60
2018-06-09T01:12:42.790Z,19.50
2018-06-09T01:15:10.588Z,19.50
2018-06-09T01:20:07.586Z,19.50
2018-06-09T01:22:35.006Z,19.50
2018-06-09T01:25:02.482Z,19.40
2018-06-09T01:27:29.949Z,19.40
2018-06-09T01:29:57.457Z,19.40
2018-06-09T01:32:24.886Z,19.40
2018-06-09T01:34:52.306Z,19.40
2018-06-09T01:37:19.782Z,19.40
2018-06-09T01:39:47.222Z,19.40
2018-06-09T01:42:14.994Z,19.40
2018-06-09T01:44:42.705Z,19.40
2018-06-09T01:47:10.126Z,19.30
2018-06-09T01:49:37.611Z,19.30
2018-06-09T01:52:05.050Z,19.20
2018-06-09T01:54:32.527Z,19.10
2018-06-09T01:56:59.954Z,19.10
2018-06-09T01:59:27.454Z,19.10
2018-06-09T02:01:54.910Z,19.10
2018-06-09T02:04:22.406Z,19.00
2018-06-09T02:09:17.348Z,19.00
2018-06-09T02:11:44.848Z,18.90
2018-06-09T02:14:12.339Z,18.90
2018-06-09T02:16:39.768Z,18.90
2018-06-09T02:19:07.238Z,18.90
2018-06-09T02:21:34.683Z,18.80
2018-06-09T02:24:02.153Z,18.90
2018-06-09T02:26:29.578Z,18.90
2018-06-09T02:28:57.063Z,18.90
2018-06-09T02:31:24.491Z,18.90
2018-06-09T02:33:51.930Z,18.80
2018-06-09T02:36:19.391Z,18.80
2018-06-09T02:38:46.862Z,18.70
2018-06-09T02:41:14.302Z,18.70
2018-06-09T02:43:41.787Z,18.60
2018-06-09T02:46:09.244Z,18.60
2018-06-09T02:48:36.672Z,18.60
2018-06-09T02:51:04.159Z,18.60
2018-06-09T02:53:31.654Z,18.60
2018-06-09T02:55:59.125Z,18.60
2018-06-09T02:58:26.546Z,18.60
2018-06-09T03:00:54.018Z,18.60
2018-06-09T03:03:21.482Z,18.70
2018-06-09T03:05:48.988Z,18.60
2018-06-09T03:08:16.444Z,18.60
2018-06-09T03:10:43.923Z,18.60
2018-06-09T03:13:11.390Z,18.60
2018-06-09T03:15:38.881Z,18.60
2018-06-09T03:18:06.371Z,18.60
2018-06-09T03:20:33.806Z,18.70
2018-06-09T03:23:01.278Z,18.70
2018-06-09T03:25:28.713Z,18.70
2018-06-09T03:27:56.193Z,18.70
2018-06-09T03:30:23.633Z,18.70
2018-06-09T03:32:51.106Z,18.80
2018-06-09T03:35:18.539Z,19.00
2018-06-09T03:37:46.021Z,19.00
2018-06-09T03:40:13.446Z,19.00
2018-06-09T03:42:40.927Z,19.00
2018-06-09T03:45:08.346Z,19.00
2018-06-09T03:47:35.836Z,19.00
2018-06-09T03:50:03.271Z,19.10
2018-06-09T03:52:30.710Z,19.10
2018-06-09T03:54:58.190Z,19.10
2018-06-09T03:57:25.642Z,19.10
2018-06-09T03:59:53.106Z,19.10
2018-06-09T04:02:20.710Z,19.10
2018-06-09T04:04:48.181Z,19.20
2018-06-09T04:07:15.634Z,19.20
2018-06-09T04:09:43.102Z,19.30
2018-06-09T04:12:10.523Z,19.30
2018-06-09T04:14:37.994Z,19.40
2018-06-09T04:17:05.415Z,19.40
2018-06-09T04:19:32.907Z,19.50
2018-06-09T04:22:00.322Z,19.50
2018-06-09T04:24:27.771Z,19.60
2018-06-09T04:26:55.253Z,19.70
2018-06-09T04:29:22.703Z,19.80
2018-06-09T04:31:50.162Z,19.90
2018-06-09T04:34:17.581Z,20.10
2018-06-09T04:36:45.107Z,20.20
2018-06-09T04:39:12.531Z,20.30
2018-06-09T04:41:40.234Z,20.20
2018-06-09T04:44:07.658Z,20.20
2018-06-09T04:46:35.443Z,20.20
2018-06-09T04:49:02.866Z,20.40
2018-06-09T04:51:30.702Z,20.60
2018-06-09T04:53:58.143Z,20.70
2018-06-09T04:56:25.610Z,20.60
2018-06-09T04:58:53.082Z,20.80
2018-06-09T05:01:20.503Z,20.90
2018-06-09T05:03:47.971Z,21.00
2018-06-09T05:06:15.514Z,21.20
2018-06-09T05:11:10.443Z,21.60
2018-06-09T05:13:37.862Z,21.80
2018-06-09T05:16:05.335Z,21.80
2018-06-09T05:18:32.771Z,21.90
2018-06-09T05:21:00.247Z,21.90
2018-06-09T05:23:27.678Z,21.90
2018-06-09T05:25:55.143Z,22.00
2018-06-09T05:28:22.562Z,22.10
2018-06-09T05:30:50.022Z,22.20
2018-06-09T05:33:17.479Z,22.20
2018-06-09T05:35:44.946Z,22.20
2018-06-09T05:38:12.642Z,22.30
2018-06-09T05:40:40.294Z,22.40
2018-06-09T05:43:07.751Z,22.60
2018-06-09T05:45:35.174Z,22.70
2018-06-09T05:48:02.623Z,22.80
2018-06-09T05:50:30.052Z,23.10
2018-06-09T05:55:24.926Z,23.20
2018-06-09T05:57:52.397Z,23.30
2018-06-09T06:00:19.831Z,23.30
2018-06-09T06:02:47.388Z,23.40
2018-06-09T06:05:15.150Z,23.50
2018-06-09T06:07:42.571Z,23.60
2018-06-09T06:10:10.036Z,23.90
2018-06-09T06:12:37.466Z,24.50
2018-06-09T06:15:04.995Z,25.00
2018-06-09T06:17:32.413Z,25.30
2018-06-09T06:19:59.859Z,25.50
2018-06-09T06:24:54.719Z,25.90
2018-06-09T06:27:22.151Z,26.20
2018-06-09T06:29:49.589Z,26.50
2018-06-09T06:32:17.509Z,26.80
2018-06-09T06:34:44.926Z,27.00
2018-06-09T06:37:12.342Z,27.50
2018-06-09T06:39:39.794Z,27.60
2018-06-09T06:42:07.218Z,27.80
2018-06-09T06:44:34.691Z,28.30
2018-06-09T06:47:02.126Z,28.50
2018-06-09T06:49:29.591Z,28.90
2018-06-09T06:51:57.022Z,29.40
2018-06-09T06:54:24.470Z,30.00
2018-06-09T06:56:51.899Z,30.00
2018-06-09T06:59:19.364Z,30.30
2018-06-09T07:01:46.854Z,30.40
2018-06-09T07:04:14.411Z,30.90
2018-06-09T07:06:41.855Z,31.30
2018-06-09T07:09:09.322Z,31.20
2018-06-09T07:14:04.223Z,32.00
2018-06-09T07:16:31.757Z,32.40
2018-06-09T07:18:59.458Z,32.90
2018-06-09T07:21:26.886Z,33.40
2018-06-09T07:23:54.346Z,34.00
2018-06-09T07:26:21.794Z,34.30
2018-06-09T07:28:49.593Z,34.80
2018-06-09T07:31:17.034Z,35.30
2018-06-09T07:33:44.495Z,35.20
2018-06-09T07:36:12.424Z,35.50
2018-06-09T07:38:39.913Z,35.40
2018-06-09T07:41:07.591Z,35.50
2018-06-09T07:43:35.057Z,35.80
2018-06-09T07:46:02.493Z,35.10
2018-06-09T07:48:29.975Z,35.40
2018-06-09T07:50:57.398Z,35.80
2018-06-09T07:53:24.825Z,36.10
2018-06-09T07:55:52.374Z,36.50
2018-06-09T07:58:19.874Z,37.00
2018-06-09T08:00:47.365Z,37.00
2018-06-09T08:03:14.814Z,37.30
2018-06-09T08:05:42.271Z,37.40
2018-06-09T08:08:09.903Z,37.60
2018-06-09T08:10:37.335Z,37.50
2018-06-09T08:13:04.779Z,36.70
2018-06-09T08:15:32.261Z,35.60
2018-06-09T08:17:59.722Z,35.20
2018-06-09T08:20:27.194Z,36.00
2018-06-09T08:22:54.638Z,37.00
2018-06-09T08:25:22.094Z,37.50
2018-06-09T08:27:49.542Z,38.20
2018-06-09T08:30:17.023Z,39.10
2018-06-09T08:32:44.762Z,39.10
2018-06-09T08:35:12.234Z,39.80
2018-06-09T08:37:40.111Z,39.50
2018-06-09T08:40:07.582Z,38.80
2018-06-09T08:42:35.024Z,39.30
2018-06-09T08:47:30.265Z,40.80
2018-06-09T08:49:57.731Z,40.50
2018-06-09T08:52:25.214Z,40.10
2018-06-09T08:54:52.661Z,40.50
2018-06-09T08:59:47.561Z,40.00
2018-06-09T09:02:15.068Z,40.00
2018-06-09T09:04:42.502Z,40.20
2018-06-09T09:07:09.972Z,40.30
2018-06-09T09:09:37.562Z,40.40
2018-06-09T09:12:05.859Z,40.50
2018-06-09T09:14:33.358Z,40.70
2018-06-09T09:17:00.855Z,40.80
2018-06-09T09:19:28.339Z,40.80
2018-06-09T09:21:55.814Z,40.80
2018-06-09T09:24:23.550Z,41.10
2018-06-09T09:26:51.063Z,41.60
2018-06-09T09:29:20.170Z,41.50
2018-06-09T09:31:48.897Z,42.20
2018-06-09T09:34:16.383Z,42.80
2018-06-09T09:36:43.823Z,42.30
2018-06-09T09:39:11.275Z,41.60
2018-06-09T09:41:38.709Z,41.80
2018-06-09T09:44:06.190Z,42.10
2018-06-09T09:46:33.614Z,42.70
2018-06-09T09:49:01.096Z,43.70
2018-06-09T09:51:28.522Z,43.30
2018-06-09T09:53:56.170Z,43.20
2018-06-09T09:56:23.614Z,43.50
2018-06-09T09:58:51.410Z,43.10
2018-06-09T10:01:18.866Z,43.50
2018-06-09T10:03:46.314Z,43.20
2018-06-09T10:06:14.032Z,42.20
2018-06-09T10:08:41.500Z,42.30
2018-06-09T10:11:08.922Z,42.50
2018-06-09T10:13:36.370Z,42.70
2018-06-09T10:16:03.906Z,43.00
2018-06-09T10:18:31.394Z,43.10
2018-06-09T10:20:58.830Z,42.50
2018-06-09T10:23:26.275Z,43.10
2018-06-09T10:25:53.689Z,42.90
2018-06-09T10:28:21.168Z,42.90
2018-06-09T10:30:48.599Z,43.60
2018-06-09T10:33:16.033Z,43.40
2018-06-09T10:35:43.471Z,43.40
2018-06-09T10:38:10.982Z,44.30
2018-06-09T10:43:05.883Z,43.90
2018-06-09T10:45:33.335Z,44.10
2018-06-09T10:50:28.299Z,44.70
2018-06-09T10:52:55.720Z,44.40
2018-06-09T10:55:23.178Z,44.40
2018-06-09T10:57:50.644Z,44.90
2018-06-09T11:00:18.090Z,45.50
2018-06-09T11:02:45.506Z,45.20
2018-06-09T11:05:12.957Z,45.50
2018-06-09T11:07:40.384Z,45.60
2018-06-09T11:10:07.942Z,46.20
2018-06-09T11:12:35.327Z,45.60
2018-06-09T11:15:02.774Z,45.60
2018-06-09T11:17:30.196Z,46.10
2018-06-09T11:19:57.654Z,45.70
2018-06-09T11:22:25.082Z,45.30
2018-06-09T11:24:52.526Z,45.20
2018-06-09T11:27:19.953Z,45.60
2018-06-09T11:29:47.405Z,45.70
2018-06-09T11:32:14.857Z,45.30
2018-06-09T11:34:42.322Z,46.10
2018-06-09T11:39:37.186Z,46.90
2018-06-09T11:42:05.985Z,45.70
2018-06-09T11:44:33.447Z,45.20
2018-06-09T11:47:01.283Z,45.90
2018-06-09T11:49:28.706Z,46.70
2018-06-09T11:51:56.166Z,47.00
2018-06-09T11:54:23.593Z,46.20
2018-06-09T11:56:51.101Z,45.40
2018-06-09T11:59:18.570Z,45.30
2018-06-09T12:01:46.091Z,45.70
2018-06-09T12:04:13.498Z,46.40
2018-06-09T12:06:41.214Z,46.60
2018-06-09T12:09:08.686Z,45.80
2018-06-09T12:11:36.711Z,44.40
2018-06-09T12:14:04.178Z,43.10
2018-06-09T12:16:31.673Z,41.40
2018-06-09T12:18:59.091Z,40.50
2018-06-09T12:21:26.591Z,40.20
2018-06-09T12:23:54.043Z,41.50
2018-06-09T12:26:21.508Z,43.20
2018-06-09T12:28:48.954Z,44.40
2018-06-09T12:31:16.397Z,45.00
2018-06-09T12:33:43.824Z,45.40
2018-06-09T12:36:11.276Z,45.00
2018-06-09T12:38:38.710Z,43.80
2018-06-09T12:41:06.178Z,42.90
2018-06-09T12:43:34.143Z,41.50
2018-06-09T12:46:01.585Z,40.40
2018-06-09T12:48:29.172Z,41.20
2018-06-09T12:50:56.534Z,42.60
2018-06-09T12:53:24.002Z,43.80
2018-06-09T12:58:18.927Z,43.50
2018-06-09T13:00:46.363Z,44.00
2018-06-09T13:03:13.822Z,44.80
2018-06-09T13:05:41.255Z,44.30
2018-06-09T13:08:08.709Z,42.70
2018-06-09T13:10:36.182Z,42.60
2018-06-09T13:13:03.633Z,42.90
2018-06-09T13:15:31.075Z,41.80
2018-06-09T13:17:58.538Z,40.50
2018-06-09T13:20:25.989Z,39.20
2018-06-09T13:22:53.761Z,37.90
2018-06-09T13:25:21.191Z,37.80
2018-06-09T13:27:48.647Z,39.00
2018-06-09T13:30:16.181Z,40.00
2018-06-09T13:32:43.596Z,39.40
2018-06-09T13:35:11.022Z,37.40
2018-06-09T13:37:38.490Z,35.60
2018-06-09T13:40:06.118Z,34.30
2018-06-09T13:42:33.639Z,33.60
2018-06-09T13:45:01.075Z,32.90
2018-06-09T13:47:28.818Z,32.60
2018-06-09T13:49:56.274Z,32.80
2018-06-09T13:52:24.019Z,32.80
2018-06-09T13:54:51.483Z,32.50
2018-06-09T13:57:18.934Z,32.40
2018-06-09T13:59:46.496Z,32.30
2018-06-09T14:02:14.150Z,32.40
2018-06-09T14:04:41.598Z,32.40
2018-06-09T14:07:09.039Z,32.60
2018-06-09T14:09:36.537Z,32.90
2018-06-09T14:12:03.989Z,33.00
2018-06-09T14:16:58.854Z,33.10
2018-06-09T14:19:26.310Z,33.10
2018-06-09T14:21:53.750Z,33.20
2018-06-09T14:24:21.241Z,33.30
2018-06-09T14:26:48.693Z,33.60
2018-06-09T14:29:16.159Z,34.70
2018-06-09T14:31:43.614Z,36.20
2018-06-09T14:34:11.361Z,37.40
2018-06-09T14:36:38.798Z,37.80
2018-06-09T14:39:06.999Z,38.90
2018-06-09T14:41:34.466Z,39.80
2018-06-09T14:44:01.927Z,40.60
2018-06-09T14:46:29.366Z,40.80
2018-06-09T14:48:57.206Z,40.70
2018-06-09T14:51:24.934Z,40.70
2018-06-09T14:53:52.454Z,39.80
2018-06-09T14:56:19.856Z,38.80
2018-06-09T14:58:47.341Z,38.50
2018-06-09T15:01:14.783Z,38.60
2018-06-09T15:03:42.231Z,38.90
2018-06-09T15:06:09.707Z,39.50
2018-06-09T15:08:37.449Z,39.70
2018-06-09T15:11:04.942Z,39.20
2018-06-09T15:13:32.659Z,39.10
2018-06-09T15:16:00.139Z,38.90
2018-06-09T15:18:27.557Z,38.70
2018-06-09T15:20:55.047Z,38.30
2018-06-09T15:23:22.474Z,37.80
2018-06-09T15:25:49.935Z,37.70
2018-06-09T15:28:17.414Z,37.60
2018-06-09T15:30:45.101Z,37.80
2018-06-09T15:33:12.542Z,37.90
2018-06-09T15:35:40.102Z,37.40
2018-06-09T15:38:07.521Z,37.20
2018-06-09T15:40:34.967Z,37.40
2018-06-09T15:43:02.415Z,37.70
2018-06-09T15:45:29.872Z,37.90
2018-06-09T15:47:57.650Z,37.50
2018-06-09T15:50:25.097Z,37.10
2018-06-09T15:52:52.538Z,36.30
2018-06-09T15:55:20.012Z,35.10
2018-06-09T15:57:47.462Z,34.50
2018-06-09T16:00:14.918Z,34.30
2018-06-09T16:02:45.531Z,34.70
2018-06-09T16:05:14.258Z,35.30
2018-06-09T16:07:45.556Z,35.70
2018-06-09T16:10:13.073Z,35.40
2018-06-09T16:12:40.546Z,35.10
2018-06-09T16:15:07.995Z,34.40
2018-06-09T16:17:35.491Z,33.90
2018-06-09T16:20:03.238Z,33.70
2018-06-09T16:22:30.719Z,33.30
2018-06-09T16:24:58.191Z,33.00
2018-06-09T16:27:25.702Z,32.80
2018-06-09T16:29:53.138Z,32.60
2018-06-09T16:32:20.716Z,32.50
2018-06-09T16:34:48.164Z,32.30
2018-06-09T16:37:15.650Z,32.10
2018-06-09T16:39:43.193Z,32.00
2018-06-09T16:42:10.672Z,31.80
2018-06-09T16:44:38.126Z,31.50
2018-06-09T16:47:05.599Z,31.30
2018-06-09T16:49:33.058Z,31.00
2018-06-09T16:52:00.536Z,30.80
2018-06-09T16:54:27.986Z,30.80
2018-06-09T16:56:55.745Z,30.60
2018-06-09T16:59:23.176Z,30.60
2018-06-09T17:01:50.967Z,30.60
2018-06-09T17:04:18.430Z,30.60
2018-06-09T17:06:45.934Z,30.50
2018-06-09T17:09:13.403Z,30.50
2018-06-09T17:11:40.899Z,30.40
2018-06-09T17:14:08.358Z,30.40
2018-06-09T17:16:35.859Z,30.30
2018-06-09T17:19:03.335Z,30.30
2018-06-09T17:21:31.118Z,30.20
2018-06-09T17:23:58.571Z,30.10
2018-06-09T17:26:27.360Z,29.90
2018-06-09T17:28:54.922Z,29.70
2018-06-09T17:31:22.378Z,29.70
2018-06-09T17:33:49.851Z,29.60
2018-06-09T17:38:44.729Z,29.40
2018-06-09T17:41:12.192Z,29.40
2018-06-09T17:43:39.668Z,29.40
2018-06-09T17:46:07.107Z,29.40
2018-06-09T17:48:34.563Z,29.20
2018-06-09T17:51:02.101Z,29.10
2018-06-09T17:53:29.507Z,28.80
2018-06-09T17:55:56.946Z,28.50
2018-06-09T17:58:24.430Z,28.30
2018-06-09T18:00:51.847Z,28.00
2018-06-09T18:03:19.291Z,27.90
2018-06-09T18:05:46.870Z,27.80
2018-06-09T18:08:14.314Z,27.50
2018-06-09T18:10:41.763Z,27.20
2018-06-09T18:13:09.205Z,27.00
2018-06-09T18:15:36.655Z,26.80
2018-06-09T18:18:04.123Z,26.60
2018-06-09T18:20:31.540Z,26.50
2018-06-09T18:22:59.092Z,26.40
2018-06-09T18:25:26.504Z,26.30
2018-06-09T18:27:53.930Z,26.20
2018-06-09T18:30:21.395Z,26.10
2018-06-09T18:32:48.818Z,26.00
2018-06-09T18:35:16.274Z,25.90
2018-06-09T18:37:43.716Z,25.80
2018-06-09T18:40:11.166Z,25.60
2018-06-09T18:42:38.619Z,25.50
2018-06-09T18:45:06.059Z,25.30
2018-06-09T18:47:33.494Z,25.20
2018-06-09T18:50:00.934Z,25.20
2018-06-09T18:52:28.376Z,25.10
2018-06-09T18:54:55.842Z,25.00
2018-06-09T18:57:23.262Z,25.00
2018-06-09T18:59:50.719Z,25.10
2018-06-09T19:02:18.160Z,25.00
2018-06-09T19:04:45.625Z,25.00
2018-06-09T19:07:13.070Z,24.80
2018-06-09T19:09:45.479Z,24.80
2018-06-09T19:12:13.246Z,24.70
2018-06-09T19:14:40.701Z,24.60
2018-06-09T19:17:08.134Z,24.60
2018-06-09T19:19:35.598Z,24.50
2018-06-09T19:22:03.103Z,24.50
2018-06-09T19:24:30.514Z,24.50
2018-06-09T19:26:57.959Z,24.40
2018-06-09T19:29:25.415Z,24.40
2018-06-09T19:31:52.850Z,24.40
2018-06-09T19:34:20.307Z,24.40
2018-06-09T19:36:48.344Z,24.40
2018-06-09T19:39:15.788Z,24.40
2018-06-09T19:41:43.251Z,24.30
2018-06-09T19:44:10.686Z,24.30
2018-06-09T19:46:38.133Z,24.30
2018-06-09T19:49:05.555Z,24.40
2018-06-09T19:51:33.014Z,24.40
2018-06-09T19:54:00.463Z,24.40
2018-06-09T19:56:27.914Z,24.40
2018-06-09T19:58:55.353Z,24.40
2018-06-09T20:01:22.810Z,24.30
2018-06-09T20:03:50.248Z,24.30
2018-06-09T20:06:17.761Z,24.20
2018-06-09T20:08:45.222Z,24.20
2018-06-09T20:11:12.683Z,24.00
2018-06-09T20:13:40.143Z,23.90
2018-06-09T20:16:07.683Z,23.80
2018-06-09T20:18:35.110Z,23.60
2018-06-09T20:21:02.567Z,23.50
2018-06-09T20:23:29.999Z,23.40
2018-06-09T20:25:57.551Z,23.30
2018-06-09T20:28:24.986Z,23.10
2018-06-09T20:30:52.509Z,22.90
2018-06-09T20:33:19.958Z,22.70
2018-06-09T20:35:47.427Z,22.50
2018-06-09T20:38:14.874Z,22.40
2018-06-09T20:40:42.590Z,22.30
2018-06-09T20:43:10.668Z,22.20
2018-06-09T20:45:38.118Z,22.10
2018-06-09T20:48:05.574Z,22.00
2018-06-09T20:50:33.022Z,21.70
2018-06-09T20:53:00.503Z,21.60
2018-06-09T20:55:27.986Z,21.50
2018-06-09T20:57:55.450Z,21.40
2018-06-09T21:00:22.893Z,21.30
2018-06-09T21:02:50.357Z,21.30
2018-06-09T21:05:17.802Z,21.20
2018-06-09T21:07:45.275Z,21.10
2018-06-09T21:10:12.746Z,21.00
2018-06-09T21:12:40.218Z,21.00
2018-06-09T21:15:07.682Z,20.90
2018-06-09T21:17:35.155Z,20.80
2018-06-09T21:20:02.652Z,20.70
2018-06-09T21:22:29.591Z,20.70
2018-06-09T21:24:56.511Z,20.70
2018-06-09T21:27:28.609Z,20.60
2018-06-09T21:29:57.030Z,20.60
2018-06-09T21:32:27.050Z,20.60
2018-06-09T21:35:06.226Z,20.60
2018-06-09T21:37:39.766Z,20.50
2018-06-09T21:40:13.100Z,20.40
2018-06-09T21:42:48.699Z,20.50
2018-06-09T21:45:21.754Z,20.50
2018-06-09T21:47:49.233Z,20.50
2018-06-09T21:50:16.662Z,20.40
2018-06-09T21:52:44.145Z,20.40
2018-06-09T21:55:11.665Z,20.50
2018-06-09T21:57:39.443Z,20.50
2018-06-09T22:00:07.429Z,20.50
2018-06-09T22:02:35.051Z,20.50
2018-06-09T22:05:02.510Z,20.50
2018-06-09T22:07:30.332Z,20.50
2018-06-09T22:09:57.818Z,20.50
2018-06-09T22:12:25.279Z,20.40
2018-06-09T22:14:52.798Z,20.40
2018-06-09T22:17:20.570Z,20.40
2018-06-09T22:19:48.027Z,20.30
2018-06-09T22:22:15.458Z,20.30
2018-06-09T22:24:42.906Z,20.30
2018-06-09T22:27:10.651Z,20.30
2018-06-09T22:29:38.110Z,20.20
2018-06-09T22:32:05.557Z,20.20
2018-06-09T22:34:32.999Z,20.10
2018-06-09T22:37:00.463Z,20.10
2018-06-09T22:39:27.924Z,20.00
2018-06-09T22:41:55.383Z,19.90
2018-06-09T22:44:23.080Z,19.90
2018-06-09T22:46:50.542Z,19.80
2018-06-09T22:49:18.040Z,19.70
2018-06-09T22:51:45.509Z,19.70
2018-06-09T22:54:12.985Z,19.70
2018-06-09T22:56:40.433Z,19.60
2018-06-09T22:59:07.909Z,19.60
2018-06-09T23:01:35.363Z,19.50
2018-06-09T23:04:02.846Z,19.50
2018-06-09T23:06:30.367Z,19.50
2018-06-09T23:08:57.850Z,19.40
2018-06-09T23:13:52.779Z,19.30
2018-06-09T23:16:20.230Z,19.30
2018-06-09T23:18:47.682Z,19.20
2018-06-09T23:21:15.149Z,19.20
2018-06-09T23:23:42.894Z,19.10
2018-06-09T23:26:10.339Z,19.10
2018-06-09T23:28:37.766Z,19.10
2018-06-09T23:31:05.227Z,19.10
2018-06-09T23:33:32.667Z,19.10
2018-06-09T23:36:00.121Z,19.10
2018-06-09T23:38:27.559Z,19.00
2018-06-09T23:40:55.029Z,18.90
2018-06-09T23:43:22.756Z,18.90
2018-06-09T23:45:50.539Z,18.90
2018-06-09T23:48:18.281Z,18.90
2018-06-09T23:50:45.750Z,18.90
2018-06-09T23:53:13.183Z,19.00
2018-06-09T23:55:40.646Z,19.00
2018-06-09T23:58:08.075Z,19.00
